Terminal Aerodrome Forecast
Issued by NWS

Home | Current Version | Previous Version | Text Only | Print | Product List | Glossary On
Versions: 1 2 3 4 5 6 7 8 9 10 11 12 13 14 15 16 17 18 19 20 21
000
FTUS43 KDDC 251133
TAFHYS
TAF
KHYS 251133Z 2512/2612 17007KT P6SM FEW250
     FM251600 19014KT P6SM FEW200
     FM260100 16010KT P6SM SCT200
     FM260400 16010KT P6SM SCT200 WS020/19045KT=

USA.gov is the U.S. government's official web portal to all federal, state and local government web resources and services.